sensor_id;sensor_type;location;lat;lon;timestamp;temperature;humidity
18880;DHT22;9572;52.378;13.404;2023-08-21T00:01:04;21.10;99.90
18880;DHT22;9572;52.378;13.404;2023-08-21T00:03:32;21.00;99.90
18880;DHT22;9572;52.378;13.404;2023-08-21T00:05:59;21.00;99.90
18880;DHT22;9572;52.378;13.404;2023-08-21T00:08:26;21.00;99.90
18880;DHT22;9572;52.378;13.404;2023-08-21T00:10:53;20.90;99.90
18880;DHT22;9572;52.378;13.404;2023-08-21T00:13:20;20.90;99.90
18880;DHT22;9572;52.378;13.404;2023-08-21T00:15:47;20.90;99.90
18880;DHT22;9572;52.378;13.404;2023-08-21T00:18:15;20.90;99.90
18880;DHT22;9572;52.378;13.404;2023-08-21T00:20:45;20.90;99.90
18880;DHT22;9572;52.378;13.404;2023-08-21T00:23:12;20.90;99.90
18880;DHT22;9572;52.378;13.404;2023-08-21T00:25:39;20.90;99.90
18880;DHT22;9572;52.378;13.404;2023-08-21T00:28:06;20.90;99.90
18880;DHT22;9572;52.378;13.404;2023-08-21T00:30:33;20.80;99.90
18880;DHT22;9572;52.378;13.404;2023-08-21T00:33:00;20.80;99.90
18880;DHT22;9572;52.378;13.404;2023-08-21T00:35:29;20.80;99.90
18880;DHT22;9572;52.378;13.404;2023-08-21T00:37:56;20.80;99.90
18880;DHT22;9572;52.378;13.404;2023-08-21T00:40:24;20.80;99.90
18880;DHT22;9572;52.378;13.404;2023-08-21T00:42:50;20.80;99.90
18880;DHT22;9572;52.378;13.404;2023-08-21T00:45:17;20.80;99.90
18880;DHT22;9572;52.378;13.404;2023-08-21T00:47:46;20.80;99.90
18880;DHT22;9572;52.378;13.404;2023-08-21T00:50:14;20.70;99.90
18880;DHT22;9572;52.378;13.404;2023-08-21T00:52:45;20.70;99.90
18880;DHT22;9572;52.378;13.404;2023-08-21T00:55:13;20.70;99.90
18880;DHT22;9572;52.378;13.404;2023-08-21T00:57:40;20.60;99.90
18880;DHT22;9572;52.378;13.404;2023-08-21T01:00:08;20.60;99.90
18880;DHT22;9572;52.378;13.404;2023-08-21T01:02:36;20.60;99.90
18880;DHT22;9572;52.378;13.404;2023-08-21T01:05:04;20.60;99.90
18880;DHT22;9572;52.378;13.404;2023-08-21T01:07:36;20.60;99.90
18880;DHT22;9572;52.378;13.404;2023-08-21T01:10:09;20.70;99.90
18880;DHT22;9572;52.378;13.404;2023-08-21T01:12:45;20.60;99.90
18880;DHT22;9572;52.378;13.404;2023-08-21T01:15:15;20.60;99.90
18880;DHT22;9572;52.378;13.404;2023-08-21T01:17:43;20.50;99.90
18880;DHT22;9572;52.378;13.404;2023-08-21T01:20:13;20.50;99.90
18880;DHT22;9572;52.378;13.404;2023-08-21T01:22:42;20.50;99.90
18880;DHT22;9572;52.378;13.404;2023-08-21T01:25:13;20.50;99.90
18880;DHT22;9572;52.378;13.404;2023-08-21T01:27:43;20.50;99.90
18880;DHT22;9572;52.378;13.404;2023-08-21T01:30:16;20.50;99.90
18880;DHT22;9572;52.378;13.404;2023-08-21T01:32:50;20.50;99.90
18880;DHT22;9572;52.378;13.404;2023-08-21T01:35:19;20.60;99.90
18880;DHT22;9572;52.378;13.404;2023-08-21T01:37:47;20.50;99.90
18880;DHT22;9572;52.378;13.404;2023-08-21T01:40:21;20.50;99.90
18880;DHT22;9572;52.378;13.404;2023-08-21T01:42:48;20.50;99.90
18880;DHT22;9572;52.378;13.404;2023-08-21T01:45:16;20.60;99.90
18880;DHT22;9572;52.378;13.404;2023-08-21T01:47:43;20.50;99.90
18880;DHT22;9572;52.378;13.404;2023-08-21T01:50:10;20.60;99.90
18880;DHT22;9572;52.378;13.404;2023-08-21T01:52:37;20.60;99.90
18880;DHT22;9572;52.378;13.404;2023-08-21T01:55:07;20.60;99.90
18880;DHT22;9572;52.378;13.404;2023-08-21T01:57:38;20.60;99.90
18880;DHT22;9572;52.378;13.404;2023-08-21T02:00:08;20.70;99.90
18880;DHT22;9572;52.378;13.404;2023-08-21T02:02:36;20.70;99.90
18880;DHT22;9572;52.378;13.404;2023-08-21T02:05:03;20.70;99.90
18880;DHT22;9572;52.378;13.404;2023-08-21T02:07:30;20.70;99.90
18880;DHT22;9572;52.378;13.404;2023-08-21T02:09:57;20.80;99.90
18880;DHT22;9572;52.378;13.404;2023-08-21T02:12:26;20.80;99.90
18880;DHT22;9572;52.378;13.404;2023-08-21T02:14:54;20.80;99.90
18880;DHT22;9572;52.378;13.404;2023-08-21T02:17:21;20.80;99.90
18880;DHT22;9572;52.378;13.404;2023-08-21T02:19:49;20.80;99.90
18880;DHT22;9572;52.378;13.404;2023-08-21T02:22:16;20.80;99.90
18880;DHT22;9572;52.378;13.404;2023-08-21T02:24:43;20.80;99.90
18880;DHT22;9572;52.378;13.404;2023-08-21T02:27:10;20.80;99.90
18880;DHT22;9572;52.378;13.404;2023-08-21T02:29:37;20.90;99.90
18880;DHT22;9572;52.378;13.404;2023-08-21T02:32:06;20.90;99.90
18880;DHT22;9572;52.378;13.404;2023-08-21T02:34:33;20.90;99.90
18880;DHT22;9572;52.378;13.404;2023-08-21T02:37:00;20.90;99.90
18880;DHT22;9572;52.378;13.404;2023-08-21T02:39:28;20.80;99.90
18880;DHT22;9572;52.378;13.404;2023-08-21T02:41:55;20.80;99.90
18880;DHT22;9572;52.378;13.404;2023-08-21T02:44:22;20.80;99.90
18880;DHT22;9572;52.378;13.404;2023-08-21T02:46:49;20.90;99.90
18880;DHT22;9572;52.378;13.404;2023-08-21T02:49:25;20.90;99.90
18880;DHT22;9572;52.378;13.404;2023-08-21T02:51:53;20.90;99.90
18880;DHT22;9572;52.378;13.404;2023-08-21T02:54:20;20.90;99.90
18880;DHT22;9572;52.378;13.404;2023-08-21T02:56:47;20.90;99.90
18880;DHT22;9572;52.378;13.404;2023-08-21T02:59:14;20.90;99.90
18880;DHT22;9572;52.378;13.404;2023-08-21T03:01:41;20.90;99.90
18880;DHT22;9572;52.378;13.404;2023-08-21T03:04:08;20.90;99.90
18880;DHT22;9572;52.378;13.404;2023-08-21T03:06:36;20.90;99.90
18880;DHT22;9572;52.378;13.404;2023-08-21T03:09:03;20.90;99.90
18880;DHT22;9572;52.378;13.404;2023-08-21T03:11:30;20.90;99.90
18880;DHT22;9572;52.378;13.404;2023-08-21T03:13:57;21.00;99.90
18880;DHT22;9572;52.378;13.404;2023-08-21T03:16:24;20.90;99.90
18880;DHT22;9572;52.378;13.404;2023-08-21T03:18:55;20.90;99.90
18880;DHT22;9572;52.378;13.404;2023-08-21T03:21:25;20.90;99.90
18880;DHT22;9572;52.378;13.404;2023-08-21T03:23:55;20.90;99.90
18880;DHT22;9572;52.378;13.404;2023-08-21T03:26:23;20.90;99.90
18880;DHT22;9572;52.378;13.404;2023-08-21T03:28:50;21.00;99.90
18880;DHT22;9572;52.378;13.404;2023-08-21T03:31:17;20.90;99.90
18880;DHT22;9572;52.378;13.404;2023-08-21T03:33:45;20.90;99.90
18880;DHT22;9572;52.378;13.404;2023-08-21T03:36:12;21.00;99.90
18880;DHT22;9572;52.378;13.404;2023-08-21T03:38:40;20.90;99.90
18880;DHT22;9572;52.378;13.404;2023-08-21T03:41:08;20.90;99.90
18880;DHT22;9572;52.378;13.404;2023-08-21T03:43:35;20.90;99.90
18880;DHT22;9572;52.378;13.404;2023-08-21T03:46:06;20.90;99.90
18880;DHT22;9572;52.378;13.404;2023-08-21T03:48:33;20.90;99.90
18880;DHT22;9572;52.378;13.404;2023-08-21T03:51:00;21.00;99.90
18880;DHT22;9572;52.378;13.404;2023-08-21T03:53:27;20.90;99.90
18880;DHT22;9572;52.378;13.404;2023-08-21T03:55:54;21.00;99.90
18880;DHT22;9572;52.378;13.404;2023-08-21T03:58:23;21.00;99.90
18880;DHT22;9572;52.378;13.404;2023-08-21T04:00:51;21.00;99.90
18880;DHT22;9572;52.378;13.404;2023-08-21T04:03:18;20.90;99.90
18880;DHT22;9572;52.378;13.404;2023-08-21T04:05:45;20.90;99.90
18880;DHT22;9572;52.378;13.404;2023-08-21T04:08:12;20.90;99.90
18880;DHT22;9572;52.378;13.404;2023-08-21T04:10:39;20.90;99.90
18880;DHT22;9572;52.378;13.404;2023-08-21T04:13:07;20.90;99.90
18880;DHT22;9572;52.378;13.404;2023-08-21T04:15:44;20.90;99.90
18880;DHT22;9572;52.378;13.404;2023-08-21T04:18:11;20.90;99.90
18880;DHT22;9572;52.378;13.404;2023-08-21T04:20:38;20.90;99.90
18880;DHT22;9572;52.378;13.404;2023-08-21T04:23:05;20.90;99.90
18880;DHT22;9572;52.378;13.404;2023-08-21T04:25:33;21.00;99.90
18880;DHT22;9572;52.378;13.404;2023-08-21T04:28:00;21.00;99.90
18880;DHT22;9572;52.378;13.404;2023-08-21T04:30:27;21.00;99.90
18880;DHT22;9572;52.378;13.404;2023-08-21T04:32:56;21.00;99.90
18880;DHT22;9572;52.378;13.404;2023-08-21T04:35:23;21.00;99.90
18880;DHT22;9572;52.378;13.404;2023-08-21T04:37:49;21.00;99.90
18880;DHT22;9572;52.378;13.404;2023-08-21T04:40:17;21.00;99.90
18880;DHT22;9572;52.378;13.404;2023-08-21T04:42:46;21.00;99.90
18880;DHT22;9572;52.378;13.404;2023-08-21T04:45:13;21.00;99.90
18880;DHT22;9572;52.378;13.404;2023-08-21T04:47:40;21.00;99.90
18880;DHT22;9572;52.378;13.404;2023-08-21T04:50:09;21.00;99.90
18880;DHT22;9572;52.378;13.404;2023-08-21T04:52:36;21.00;99.90
18880;DHT22;9572;52.378;13.404;2023-08-21T04:55:05;21.00;99.90
18880;DHT22;9572;52.378;13.404;2023-08-21T04:57:33;21.00;99.90
18880;DHT22;9572;52.378;13.404;2023-08-21T05:00:00;21.10;99.90
18880;DHT22;9572;52.378;13.404;2023-08-21T05:02:29;21.10;99.90
18880;DHT22;9572;52.378;13.404;2023-08-21T05:04:56;21.20;99.90
18880;DHT22;9572;52.378;13.404;2023-08-21T05:07:25;21.20;99.90
18880;DHT22;9572;52.378;13.404;2023-08-21T05:09:53;21.20;99.90
18880;DHT22;9572;52.378;13.404;2023-08-21T05:12:20;21.30;99.90
18880;DHT22;9572;52.378;13.404;2023-08-21T05:14:47;21.30;99.90
18880;DHT22;9572;52.378;13.404;2023-08-21T05:17:20;21.30;99.90
18880;DHT22;9572;52.378;13.404;2023-08-21T05:19:47;21.30;99.90
18880;DHT22;9572;52.378;13.404;2023-08-21T05:22:15;21.30;99.90
18880;DHT22;9572;52.378;13.404;2023-08-21T05:24:43;21.30;99.90
18880;DHT22;9572;52.378;13.404;2023-08-21T05:27:10;21.30;99.90
18880;DHT22;9572;52.378;13.404;2023-08-21T05:29:37;21.40;99.90
18880;DHT22;9572;52.378;13.404;2023-08-21T05:32:08;21.40;99.90
18880;DHT22;9572;52.378;13.404;2023-08-21T05:34:35;21.50;99.90
18880;DHT22;9572;52.378;13.404;2023-08-21T05:37:02;21.60;99.90
18880;DHT22;9572;52.378;13.404;2023-08-21T05:39:29;21.70;99.90
18880;DHT22;9572;52.378;13.404;2023-08-21T05:41:59;21.70;99.90
18880;DHT22;9572;52.378;13.404;2023-08-21T05:44:26;21.80;99.90
18880;DHT22;9572;52.378;13.404;2023-08-21T05:46:54;21.80;99.90
18880;DHT22;9572;52.378;13.404;2023-08-21T05:49:21;22.00;99.90
18880;DHT22;9572;52.378;13.404;2023-08-21T05:51:48;22.30;99.90
18880;DHT22;9572;52.378;13.404;2023-08-21T05:54:16;22.50;99.90
18880;DHT22;9572;52.378;13.404;2023-08-21T05:56:43;22.70;99.90
18880;DHT22;9572;52.378;13.404;2023-08-21T05:59:11;22.70;99.90
18880;DHT22;9572;52.378;13.404;2023-08-21T06:01:38;22.80;99.90
18880;DHT22;9572;52.378;13.404;2023-08-21T06:04:05;22.80;99.90
18880;DHT22;9572;52.378;13.404;2023-08-21T06:06:32;22.80;99.90
18880;DHT22;9572;52.378;13.404;2023-08-21T06:08:59;22.70;99.90
18880;DHT22;9572;52.378;13.404;2023-08-21T06:11:26;22.80;99.90
18880;DHT22;9572;52.378;13.404;2023-08-21T06:13:54;22.80;99.90
18880;DHT22;9572;52.378;13.404;2023-08-21T06:16:23;22.90;99.90
18880;DHT22;9572;52.378;13.404;2023-08-21T06:18:50;23.00;99.90
18880;DHT22;9572;52.378;13.404;2023-08-21T06:21:18;23.10;99.90
18880;DHT22;9572;52.378;13.404;2023-08-21T06:23:46;23.20;99.90
18880;DHT22;9572;52.378;13.404;2023-08-21T06:26:13;23.20;99.90
18880;DHT22;9572;52.378;13.404;2023-08-21T06:28:40;23.50;99.90
18880;DHT22;9572;52.378;13.404;2023-08-21T06:31:08;23.80;99.90
18880;DHT22;9572;52.378;13.404;2023-08-21T06:33:40;23.90;99.90
18880;DHT22;9572;52.378;13.404;2023-08-21T06:36:08;23.90;99.90
18880;DHT22;9572;52.378;13.404;2023-08-21T06:38:40;23.90;99.90
18880;DHT22;9572;52.378;13.404;2023-08-21T06:41:08;23.80;99.90
18880;DHT22;9572;52.378;13.404;2023-08-21T06:43:37;23.90;99.90
18880;DHT22;9572;52.378;13.404;2023-08-21T06:46:04;23.90;99.90
18880;DHT22;9572;52.378;13.404;2023-08-21T06:48:31;23.90;99.90
18880;DHT22;9572;52.378;13.404;2023-08-21T06:51:01;24.00;99.90
18880;DHT22;9572;52.378;13.404;2023-08-21T06:53:28;24.00;99.90
18880;DHT22;9572;52.378;13.404;2023-08-21T06:55:55;24.10;99.90
18880;DHT22;9572;52.378;13.404;2023-08-21T06:58:22;24.10;99.90
18880;DHT22;9572;52.378;13.404;2023-08-21T07:00:49;24.10;99.90
18880;DHT22;9572;52.378;13.404;2023-08-21T07:03:16;24.10;99.90
18880;DHT22;9572;52.378;13.404;2023-08-21T07:05:46;24.20;99.90
18880;DHT22;9572;52.378;13.404;2023-08-21T07:08:15;24.20;99.90
18880;DHT22;9572;52.378;13.404;2023-08-21T07:10:42;24.20;99.90
18880;DHT22;9572;52.378;13.404;2023-08-21T07:13:09;24.40;99.90
18880;DHT22;9572;52.378;13.404;2023-08-21T07:15:36;24.50;99.90
18880;DHT22;9572;52.378;13.404;2023-08-21T07:18:04;24.70;99.90
18880;DHT22;9572;52.378;13.404;2023-08-21T07:20:31;25.00;99.90
18880;DHT22;9572;52.378;13.404;2023-08-21T07:22:58;25.20;99.90
18880;DHT22;9572;52.378;13.404;2023-08-21T07:25:26;25.40;99.90
18880;DHT22;9572;52.378;13.404;2023-08-21T07:27:54;25.30;99.90
18880;DHT22;9572;52.378;13.404;2023-08-21T07:30:21;25.30;99.90
18880;DHT22;9572;52.378;13.404;2023-08-21T07:32:48;25.30;99.90
18880;DHT22;9572;52.378;13.404;2023-08-21T07:35:16;25.20;99.90
18880;DHT22;9572;52.378;13.404;2023-08-21T07:37:43;25.20;99.90
18880;DHT22;9572;52.378;13.404;2023-08-21T07:40:11;25.10;99.90
18880;DHT22;9572;52.378;13.404;2023-08-21T07:42:39;25.20;99.90
18880;DHT22;9572;52.378;13.404;2023-08-21T07:45:07;25.20;99.90
18880;DHT22;9572;52.378;13.404;2023-08-21T07:47:34;25.20;99.90
18880;DHT22;9572;52.378;13.404;2023-08-21T07:50:01;25.10;99.90
18880;DHT22;9572;52.378;13.404;2023-08-21T07:52:28;25.10;99.90
18880;DHT22;9572;52.378;13.404;2023-08-21T07:54:55;25.10;99.90
18880;DHT22;9572;52.378;13.404;2023-08-21T07:57:22;25.10;99.90
18880;DHT22;9572;52.378;13.404;2023-08-21T07:59:50;25.20;99.90
18880;DHT22;9572;52.378;13.404;2023-08-21T08:02:17;25.20;99.90
18880;DHT22;9572;52.378;13.404;2023-08-21T08:04:44;25.30;99.90
18880;DHT22;9572;52.378;13.404;2023-08-21T08:07:11;25.30;99.90
18880;DHT22;9572;52.378;13.404;2023-08-21T08:09:38;25.40;99.90
18880;DHT22;9572;52.378;13.404;2023-08-21T08:12:06;25.50;99.90
18880;DHT22;9572;52.378;13.404;2023-08-21T08:14:33;25.60;99.90
18880;DHT22;9572;52.378;13.404;2023-08-21T08:17:02;25.70;99.90
18880;DHT22;9572;52.378;13.404;2023-08-21T08:19:29;25.60;99.90
18880;DHT22;9572;52.378;13.404;2023-08-21T08:21:56;25.60;99.90
18880;DHT22;9572;52.378;13.404;2023-08-21T08:24:23;25.40;99.90
18880;DHT22;9572;52.378;13.404;2023-08-21T08:26:49;25.40;99.90
18880;DHT22;9572;52.378;13.404;2023-08-21T08:29:16;25.40;99.90
18880;DHT22;9572;52.378;13.404;2023-08-21T08:31:43;25.50;99.90
18880;DHT22;9572;52.378;13.404;2023-08-21T08:34:13;25.40;99.90
18880;DHT22;9572;52.378;13.404;2023-08-21T08:36:43;25.50;99.90
18880;DHT22;9572;52.378;13.404;2023-08-21T08:39:10;25.50;99.90
18880;DHT22;9572;52.378;13.404;2023-08-21T08:41:43;25.50;99.90
18880;DHT22;9572;52.378;13.404;2023-08-21T08:44:12;25.40;99.90
18880;DHT22;9572;52.378;13.404;2023-08-21T08:46:39;25.40;99.90
18880;DHT22;9572;52.378;13.404;2023-08-21T08:49:07;25.70;99.90
18880;DHT22;9572;52.378;13.404;2023-08-21T08:51:38;25.80;99.90
18880;DHT22;9572;52.378;13.404;2023-08-21T08:54:06;25.70;99.90
18880;DHT22;9572;52.378;13.404;2023-08-21T08:56:34;25.80;99.90
18880;DHT22;9572;52.378;13.404;2023-08-21T08:59:01;25.80;99.90
18880;DHT22;9572;52.378;13.404;2023-08-21T09:01:28;25.90;99.90
18880;DHT22;9572;52.378;13.404;2023-08-21T09:03:55;26.00;99.90
18880;DHT22;9572;52.378;13.404;2023-08-21T09:06:22;26.10;99.90
18880;DHT22;9572;52.378;13.404;2023-08-21T09:09:03;26.30;99.90
18880;DHT22;9572;52.378;13.404;2023-08-21T09:11:30;26.60;99.90
18880;DHT22;9572;52.378;13.404;2023-08-21T09:13:58;26.80;99.90
18880;DHT22;9572;52.378;13.404;2023-08-21T09:16:26;26.90;99.90
18880;DHT22;9572;52.378;13.404;2023-08-21T09:18:54;27.30;99.90
18880;DHT22;9572;52.378;13.404;2023-08-21T09:21:23;27.50;99.90
18880;DHT22;9572;52.378;13.404;2023-08-21T09:24:03;28.00;99.90
18880;DHT22;9572;52.378;13.404;2023-08-21T09:26:31;28.40;99.90
18880;DHT22;9572;52.378;13.404;2023-08-21T09:29:02;28.60;99.90
18880;DHT22;9572;52.378;13.404;2023-08-21T09:31:32;28.80;99.90
18880;DHT22;9572;52.378;13.404;2023-08-21T09:34:01;28.90;99.90
18880;DHT22;9572;52.378;13.404;2023-08-21T09:36:31;28.90;99.90
18880;DHT22;9572;52.378;13.404;2023-08-21T09:39:04;29.10;99.90
18880;DHT22;9572;52.378;13.404;2023-08-21T09:41:33;29.20;99.90
18880;DHT22;9572;52.378;13.404;2023-08-21T09:44:02;28.80;99.90
18880;DHT22;9572;52.378;13.404;2023-08-21T09:46:33;28.70;99.90
18880;DHT22;9572;52.378;13.404;2023-08-21T09:49:01;28.90;99.90
18880;DHT22;9572;52.378;13.404;2023-08-21T09:51:29;29.10;99.90
18880;DHT22;9572;52.378;13.404;2023-08-21T09:54:03;29.50;99.90
18880;DHT22;9572;52.378;13.404;2023-08-21T09:56:32;29.60;99.90
18880;DHT22;9572;52.378;13.404;2023-08-21T09:59:00;29.50;99.90
18880;DHT22;9572;52.378;13.404;2023-08-21T10:01:31;29.20;99.90
18880;DHT22;9572;52.378;13.404;2023-08-21T10:04:02;29.00;99.90
18880;DHT22;9572;52.378;13.404;2023-08-21T10:06:30;28.90;99.90
18880;DHT22;9572;52.378;13.404;2023-08-21T10:09:04;28.90;99.90
18880;DHT22;9572;52.378;13.404;2023-08-21T10:11:33;29.00;99.90
18880;DHT22;9572;52.378;13.404;2023-08-21T10:14:00;29.30;99.90
18880;DHT22;9572;52.378;13.404;2023-08-21T10:16:29;29.50;99.90
18880;DHT22;9572;52.378;13.404;2023-08-21T10:19:02;30.00;99.90
18880;DHT22;9572;52.378;13.404;2023-08-21T10:21:34;30.40;99.90
18880;DHT22;9572;52.378;13.404;2023-08-21T10:24:04;30.50;99.90
18880;DHT22;9572;52.378;13.404;2023-08-21T10:26:31;30.80;99.90
18880;DHT22;9572;52.378;13.404;2023-08-21T10:29:00;31.10;99.90
18880;DHT22;9572;52.378;13.404;2023-08-21T10:31:33;31.30;99.90
18880;DHT22;9572;52.378;13.404;2023-08-21T10:34:02;31.00;99.90
18880;DHT22;9572;52.378;13.404;2023-08-21T10:39:27;30.20;99.90
18880;DHT22;9572;52.378;13.404;2023-08-21T10:41:57;29.90;99.90
18880;DHT22;9572;52.378;13.404;2023-08-21T10:44:52;29.70;99.90
18880;DHT22;9572;52.378;13.404;2023-08-21T10:47:22;29.20;99.90
18880;DHT22;9572;52.378;13.404;2023-08-21T10:49:51;28.90;99.90
18880;DHT22;9572;52.378;13.404;2023-08-21T10:52:23;29.20;99.90
18880;DHT22;9572;52.378;13.404;2023-08-21T10:54:52;29.70;99.90
18880;DHT22;9572;52.378;13.404;2023-08-21T10:57:19;30.30;99.90
18880;DHT22;9572;52.378;13.404;2023-08-21T10:59:50;30.70;99.90
18880;DHT22;9572;52.378;13.404;2023-08-21T11:02:17;31.10;99.90
18880;DHT22;9572;52.378;13.404;2023-08-21T11:04:44;31.40;99.90
18880;DHT22;9572;52.378;13.404;2023-08-21T11:07:11;31.50;99.90
18880;DHT22;9572;52.378;13.404;2023-08-21T11:09:39;31.40;99.90
18880;DHT22;9572;52.378;13.404;2023-08-21T11:12:10;31.40;99.90
18880;DHT22;9572;52.378;13.404;2023-08-21T11:14:38;31.50;99.90
18880;DHT22;9572;52.378;13.404;2023-08-21T11:17:10;31.60;99.90
18880;DHT22;9572;52.378;13.404;2023-08-21T11:19:40;31.50;99.90
18880;DHT22;9572;52.378;13.404;2023-08-21T11:22:09;31.40;99.90
18880;DHT22;9572;52.378;13.404;2023-08-21T11:24:41;31.20;99.90
18880;DHT22;9572;52.378;13.404;2023-08-21T11:27:16;31.00;99.90
18880;DHT22;9572;52.378;13.404;2023-08-21T11:29:52;30.60;99.90
18880;DHT22;9572;52.378;13.404;2023-08-21T11:32:21;30.30;99.90
18880;DHT22;9572;52.378;13.404;2023-08-21T11:34:50;30.20;99.90
18880;DHT22;9572;52.378;13.404;2023-08-21T11:37:18;30.00;99.90
18880;DHT22;9572;52.378;13.404;2023-08-21T11:39:48;30.00;99.90
18880;DHT22;9572;52.378;13.404;2023-08-21T11:42:16;29.90;99.90
18880;DHT22;9572;52.378;13.404;2023-08-21T11:44:45;30.00;99.90
18880;DHT22;9572;52.378;13.404;2023-08-21T11:47:13;29.70;99.90
18880;DHT22;9572;52.378;13.404;2023-08-21T11:49:40;29.60;99.90
18880;DHT22;9572;52.378;13.404;2023-08-21T11:52:08;29.60;99.90
18880;DHT22;9572;52.378;13.404;2023-08-21T11:54:36;29.70;99.90
18880;DHT22;9572;52.378;13.404;2023-08-21T11:57:05;29.80;99.90
18880;DHT22;9572;52.378;13.404;2023-08-21T11:59:34;30.00;99.90
18880;DHT22;9572;52.378;13.404;2023-08-21T12:02:05;30.10;99.90
18880;DHT22;9572;52.378;13.404;2023-08-21T12:04:34;29.90;99.90
18880;DHT22;9572;52.378;13.404;2023-08-21T12:07:01;29.70;99.90
18880;DHT22;9572;52.378;13.404;2023-08-21T12:09:28;29.70;99.90
18880;DHT22;9572;52.378;13.404;2023-08-21T12:11:55;29.80;99.90
18880;DHT22;9572;52.378;13.404;2023-08-21T12:14:22;29.80;99.90
18880;DHT22;9572;52.378;13.404;2023-08-21T12:16:51;29.80;99.90
18880;DHT22;9572;52.378;13.404;2023-08-21T12:19:18;29.80;99.90
18880;DHT22;9572;52.378;13.404;2023-08-21T12:21:45;29.90;99.90
18880;DHT22;9572;52.378;13.404;2023-08-21T12:24:12;30.00;99.90
18880;DHT22;9572;52.378;13.404;2023-08-21T12:26:39;30.00;99.90
18880;DHT22;9572;52.378;13.404;2023-08-21T12:29:05;29.90;99.90
18880;DHT22;9572;52.378;13.404;2023-08-21T12:31:32;29.80;99.90
18880;DHT22;9572;52.378;13.404;2023-08-21T12:34:01;29.90;99.90
18880;DHT22;9572;52.378;13.404;2023-08-21T12:36:29;29.80;99.90
18880;DHT22;9572;52.378;13.404;2023-08-21T12:38:56;29.50;99.90
18880;DHT22;9572;52.378;13.404;2023-08-21T12:41:23;29.20;99.90
18880;DHT22;9572;52.378;13.404;2023-08-21T12:43:50;28.80;99.90
18880;DHT22;9572;52.378;13.404;2023-08-21T12:46:17;28.80;99.90
18880;DHT22;9572;52.378;13.404;2023-08-21T12:48:43;28.70;99.90
18880;DHT22;9572;52.378;13.404;2023-08-21T12:51:12;28.60;99.90
18880;DHT22;9572;52.378;13.404;2023-08-21T12:53:39;28.70;99.90
18880;DHT22;9572;52.378;13.404;2023-08-21T12:56:06;28.80;99.90
18880;DHT22;9572;52.378;13.404;2023-08-21T12:58:33;28.80;99.90
18880;DHT22;9572;52.378;13.404;2023-08-21T13:01:00;28.70;99.90
18880;DHT22;9572;52.378;13.404;2023-08-21T13:03:28;28.80;99.90
18880;DHT22;9572;52.378;13.404;2023-08-21T13:05:56;28.70;99.90
18880;DHT22;9572;52.378;13.404;2023-08-21T13:08:24;28.70;99.90
18880;DHT22;9572;52.378;13.404;2023-08-21T13:10:52;28.60;99.90
18880;DHT22;9572;52.378;13.404;2023-08-21T13:13:19;28.50;99.90
18880;DHT22;9572;52.378;13.404;2023-08-21T13:15:46;28.40;99.90
18880;DHT22;9572;52.378;13.404;2023-08-21T13:18:13;28.30;99.90
18880;DHT22;9572;52.378;13.404;2023-08-21T13:20:40;28.20;99.90
18880;DHT22;9572;52.378;13.404;2023-08-21T13:23:07;28.20;99.90
18880;DHT22;9572;52.378;13.404;2023-08-21T13:25:35;28.20;99.90
18880;DHT22;9572;52.378;13.404;2023-08-21T13:28:03;28.30;99.90
18880;DHT22;9572;52.378;13.404;2023-08-21T13:30:30;28.40;99.90
18880;DHT22;9572;52.378;13.404;2023-08-21T13:32:57;28.50;99.90
18880;DHT22;9572;52.378;13.404;2023-08-21T13:35:24;28.50;99.90
18880;DHT22;9572;52.378;13.404;2023-08-21T13:37:51;28.40;99.90
18880;DHT22;9572;52.378;13.404;2023-08-21T13:40:18;28.30;99.90
18880;DHT22;9572;52.378;13.404;2023-08-21T13:42:47;28.30;99.90
18880;DHT22;9572;52.378;13.404;2023-08-21T13:45:16;28.30;99.90
18880;DHT22;9572;52.378;13.404;2023-08-21T13:47:45;28.20;99.90
18880;DHT22;9572;52.378;13.404;2023-08-21T13:50:13;28.20;99.90
18880;DHT22;9572;52.378;13.404;2023-08-21T13:52:41;28.10;99.90
18880;DHT22;9572;52.378;13.404;2023-08-21T13:55:09;28.00;99.90
18880;DHT22;9572;52.378;13.404;2023-08-21T13:57:36;28.00;99.90
18880;DHT22;9572;52.378;13.404;2023-08-21T14:00:07;28.00;99.90
18880;DHT22;9572;52.378;13.404;2023-08-21T14:02:38;28.00;99.90
18880;DHT22;9572;52.378;13.404;2023-08-21T14:05:05;28.10;99.90
18880;DHT22;9572;52.378;13.404;2023-08-21T14:07:34;28.10;99.90
18880;DHT22;9572;52.378;13.404;2023-08-21T14:10:01;28.30;99.90
18880;DHT22;9572;52.378;13.404;2023-08-21T14:12:29;28.40;99.90
18880;DHT22;9572;52.378;13.404;2023-08-21T14:14:57;28.50;99.90
18880;DHT22;9572;52.378;13.404;2023-08-21T14:17:26;28.50;99.90
18880;DHT22;9572;52.378;13.404;2023-08-21T14:19:53;28.40;99.90
18880;DHT22;9572;52.378;13.404;2023-08-21T14:22:20;28.40;99.90
18880;DHT22;9572;52.378;13.404;2023-08-21T14:24:47;28.30;99.90
18880;DHT22;9572;52.378;13.404;2023-08-21T14:27:14;28.30;99.90
18880;DHT22;9572;52.378;13.404;2023-08-21T14:29:41;28.30;99.90
18880;DHT22;9572;52.378;13.404;2023-08-21T14:32:09;28.30;99.90
18880;DHT22;9572;52.378;13.404;2023-08-21T14:34:37;28.30;99.90
18880;DHT22;9572;52.378;13.404;2023-08-21T14:37:04;28.20;99.90
18880;DHT22;9572;52.378;13.404;2023-08-21T14:39:32;28.20;99.90
18880;DHT22;9572;52.378;13.404;2023-08-21T14:41:59;28.10;99.90
18880;DHT22;9572;52.378;13.404;2023-08-21T14:44:27;28.10;99.90
18880;DHT22;9572;52.378;13.404;2023-08-21T14:46:55;28.10;99.90
18880;DHT22;9572;52.378;13.404;2023-08-21T14:49:24;28.00;99.90
18880;DHT22;9572;52.378;13.404;2023-08-21T14:51:52;27.80;99.90
18880;DHT22;9572;52.378;13.404;2023-08-21T14:54:19;27.70;99.90
18880;DHT22;9572;52.378;13.404;2023-08-21T14:56:46;27.60;99.90
18880;DHT22;9572;52.378;13.404;2023-08-21T14:59:13;27.60;99.90
18880;DHT22;9572;52.378;13.404;2023-08-21T15:01:41;27.60;99.90
18880;DHT22;9572;52.378;13.404;2023-08-21T15:04:08;27.50;99.90
18880;DHT22;9572;52.378;13.404;2023-08-21T15:06:38;27.50;99.90
18880;DHT22;9572;52.378;13.404;2023-08-21T15:09:08;27.60;99.90
18880;DHT22;9572;52.378;13.404;2023-08-21T15:11:35;27.40;99.90
18880;DHT22;9572;52.378;13.404;2023-08-21T15:14:03;27.30;99.90
18880;DHT22;9572;52.378;13.404;2023-08-21T15:16:30;27.30;99.90
18880;DHT22;9572;52.378;13.404;2023-08-21T15:18:57;27.20;99.90
18880;DHT22;9572;52.378;13.404;2023-08-21T15:21:24;27.20;99.90
18880;DHT22;9572;52.378;13.404;2023-08-21T15:23:51;27.10;99.90
18880;DHT22;9572;52.378;13.404;2023-08-21T15:26:21;27.10;99.90
18880;DHT22;9572;52.378;13.404;2023-08-21T15:28:50;27.10;99.90
18880;DHT22;9572;52.378;13.404;2023-08-21T15:31:18;27.20;99.90
18880;DHT22;9572;52.378;13.404;2023-08-21T15:33:45;27.20;99.90
18880;DHT22;9572;52.378;13.404;2023-08-21T15:36:13;27.20;99.90
18880;DHT22;9572;52.378;13.404;2023-08-21T15:38:40;27.20;99.90